Time;durP1;ratioP1;P1;durP2;ratioP2;P2;SDS_P1;SDS_P2;PMS_P1;PMS_P2;Temp;Humidity;BMP_temperature;BMP_pressure;BME280_temperature;BME280_humidity;BME280_pressure;Samples;Min_cycle;Max_cycle;Signal;HPM_P1;HPM_P2
2022/12/14 00:00:34;;;;;;;1.60;1.50;;;-4.40;99.90;;;;;;4983489;28;20034;-77
2022/12/14 00:02:59;;;;;;;0.82;0.82;;;-4.40;99.90;;;;;;5007337;28;20022;-76
2022/12/14 00:05:27;;;;;;;0.50;0.50;;;-4.50;99.90;;;;;;5003499;28;20036;-76
2022/12/14 00:07:52;;;;;;;0.90;0.90;;;-4.50;99.90;;;;;;5005466;28;20050;-76
2022/12/14 00:10:19;;;;;;;0.50;0.50;;;-4.50;99.90;;;;;;5001257;28;20433;-77
2022/12/14 00:12:44;;;;;;;0.70;0.70;;;-4.50;99.90;;;;;;4985816;28;20109;-76
2022/12/14 00:15:11;;;;;;;0.50;0.50;;;-4.40;99.90;;;;;;4997985;28;20101;-75
2022/12/14 00:17:36;;;;;;;0.75;0.75;;;-4.40;99.90;;;;;;5002952;28;20065;-76
2022/12/14 00:20:02;;;;;;;0.50;0.50;;;-4.30;99.90;;;;;;5011468;28;20061;-77
2022/12/14 00:22:28;;;;;;;0.40;0.40;;;-4.40;99.90;;;;;;5002932;28;20459;-77
2022/12/14 00:24:53;;;;;;;3.00;2.80;;;-4.30;99.90;;;;;;4989701;28;20057;-77
2022/12/14 00:27:19;;;;;;;3.85;2.15;;;-4.30;99.90;;;;;;5004433;28;20034;-76
2022/12/14 00:29:44;;;;;;;0.40;0.40;;;-4.30;99.90;;;;;;5000262;28;20028;-76
2022/12/14 00:32:10;;;;;;;0.50;0.50;;;-4.40;99.90;;;;;;5003036;28;20045;-76
2022/12/14 00:34:35;;;;;;;0.50;0.50;;;-4.30;99.90;;;;;;5014572;28;20064;-76
2022/12/14 00:37:01;;;;;;;3.10;2.88;;;-4.40;99.90;;;;;;5004905;28;20461;-75
2022/12/14 00:39:26;;;;;;;0.68;0.68;;;-4.30;99.90;;;;;;5000302;28;20036;-76
2022/12/14 00:41:52;;;;;;;0.50;0.50;;;-4.20;99.90;;;;;;4985392;28;20178;-76
2022/12/14 00:44:17;;;;;;;0.70;0.70;;;-4.30;99.90;;;;;;4992861;28;20022;-77
2022/12/14 00:46:43;;;;;;;5.47;0.88;;;-4.30;99.90;;;;;;4985531;28;20042;-77
2022/12/14 00:49:09;;;;;;;1.20;0.80;;;-4.30;99.90;;;;;;5006606;28;20026;-75
2022/12/14 00:51:34;;;;;;;1.38;1.38;;;-4.30;99.90;;;;;;4993632;28;20050;-76
2022/12/14 00:54:00;;;;;;;0.50;0.50;;;-4.30;99.90;;;;;;4992376;28;20491;-77
2022/12/14 00:56:25;;;;;;;0.57;0.57;;;-4.40;99.90;;;;;;4995717;28;20735;-77
2022/12/14 00:58:52;;;;;;;0.40;0.40;;;-4.40;99.90;;;;;;4983155;28;20022;-77
2022/12/14 01:01:20;;;;;;;0.68;0.68;;;-4.40;99.90;;;;;;4986781;28;20018;-77
2022/12/14 01:03:46;;;;;;;0.60;0.60;;;-4.40;99.90;;;;;;5007467;28;20018;-76
2022/12/14 01:06:21;;;;;;;2.28;2.17;;;-4.30;99.90;;;;;;4987036;28;20113;-77
2022/12/14 01:08:48;;;;;;;0.70;0.70;;;-4.30;99.90;;;;;;5000874;28;20030;-77
2022/12/14 01:11:14;;;;;;;0.43;0.43;;;-4.30;99.90;;;;;;5001920;28;20038;-76
2022/12/14 01:13:40;;;;;;;0.50;0.50;;;-4.30;99.90;;;;;;4980984;28;20498;-76
2022/12/14 01:16:10;;;;;;;3.80;3.65;;;-4.30;99.90;;;;;;5024611;28;20033;-76
2022/12/14 01:18:37;;;;;;;0.50;0.50;;;-4.30;99.90;;;;;;4990584;28;20060;-77
2022/12/14 01:21:15;;;;;;;0.50;0.50;;;-4.30;99.90;;;;;;5005755;28;20041;-77
2022/12/14 01:23:42;;;;;;;0.93;0.93;;;-4.30;99.90;;;;;;5008727;28;20032;-75
2022/12/14 01:26:08;;;;;;;0.60;0.60;;;-4.30;99.90;;;;;;5000024;28;20061;-75
2022/12/14 01:28:35;;;;;;;0.60;0.60;;;-4.30;99.90;;;;;;4987036;28;20030;-75
2022/12/14 01:31:07;;;;;;;4.05;2.35;;;-4.30;99.90;;;;;;4988522;28;20049;-76
2022/12/14 01:33:32;;;;;;;0.50;0.50;;;-4.30;99.90;;;;;;5001009;28;20052;-76
2022/12/14 01:36:06;;;;;;;0.70;0.70;;;-4.30;99.90;;;;;;4999060;28;20026;-76
2022/12/14 01:38:32;;;;;;;2.60;2.05;;;-4.30;99.90;;;;;;5021307;28;20022;-76
2022/12/14 01:40:58;;;;;;;0.40;0.40;;;-4.30;99.90;;;;;;5013584;28;20076;-76
2022/12/14 01:43:24;;;;;;;0.40;0.40;;;-4.30;99.90;;;;;;5002020;28;20028;-76
2022/12/14 01:45:54;;;;;;;0.50;0.50;;;-4.30;99.90;;;;;;4996514;28;20113;-75
2022/12/14 01:48:21;;;;;;;0.47;0.47;;;-4.30;99.90;;;;;;4993868;28;20026;-78
2022/12/14 01:50:47;;;;;;;0.50;0.50;;;-4.30;99.90;;;;;;5007540;28;20109;-77
2022/12/14 01:53:17;;;;;;;0.40;0.40;;;-4.30;99.90;;;;;;4985979;28;20233;-76
2022/12/14 01:55:47;;;;;;;0.50;0.50;;;-4.30;99.90;;;;;;5008731;28;20069;-76
2022/12/14 01:58:18;;;;;;;0.60;0.60;;;-4.20;99.90;;;;;;5003395;28;20518;-76
2022/12/14 02:00:44;;;;;;;0.98;0.98;;;-4.20;99.90;;;;;;5025091;28;20030;-76
2022/12/14 02:03:13;;;;;;;0.90;0.90;;;-4.20;99.90;;;;;;5000017;28;20025;-76
2022/12/14 02:05:46;;;;;;;0.57;0.57;;;-4.20;99.90;;;;;;4988252;28;20404;-76
2022/12/14 02:08:13;;;;;;;0.50;0.50;;;-4.20;99.90;;;;;;5005305;28;20026;-75
2022/12/14 02:10:39;;;;;;;3.80;2.88;;;-4.20;99.90;;;;;;4982459;28;20415;-75
2022/12/14 02:13:16;;;;;;;0.40;0.40;;;-4.30;99.90;;;;;;4998819;28;20029;-74
2022/12/14 02:15:42;;;;;;;0.50;0.50;;;-4.20;99.90;;;;;;5004004;28;20057;-75
2022/12/14 02:18:13;;;;;;;0.70;0.70;;;-4.10;99.90;;;;;;4996280;28;20085;-76
2022/12/14 02:20:47;;;;;;;0.57;0.57;;;-4.10;99.90;;;;;;4988019;28;20025;-77
2022/12/14 02:23:31;;;;;;;0.60;0.60;;;-4.20;99.90;;;;;;4985375;28;20391;-78
2022/12/14 02:26:08;;;;;;;1.35;1.30;;;-4.30;99.90;;;;;;4986599;28;20061;-75
2022/12/14 02:28:55;;;;;;;0.43;0.43;;;-4.20;99.90;;;;;;5003761;28;20109;-74
2022/12/14 02:31:43;;;;;;;0.60;0.60;;;-4.10;99.90;;;;;;5002440;28;20025;-74
2022/12/14 02:34:25;;;;;;;0.52;0.52;;;-4.20;99.90;;;;;;5002764;28;20026;-75
2022/12/14 02:37:06;;;;;;;0.50;0.50;;;-4.20;99.90;;;;;;5005971;28;20477;-75
2022/12/14 02:40:03;;;;;;;0.70;0.70;;;-4.20;99.90;;;;;;5027427;28;20033;-74
2022/12/14 02:42:56;;;;;;;0.50;0.50;;;-4.20;99.90;;;;;;5002390;28;20473;-76
2022/12/14 02:45:48;;;;;;;0.50;0.50;;;-4.20;99.90;;;;;;5002285;28;20085;-76
2022/12/14 02:48:21;;;;;;;0.50;0.50;;;-4.10;99.90;;;;;;5005278;28;20033;-75
2022/12/14 02:51:02;;;;;;;0.60;0.60;;;-4.10;99.90;;;;;;5002168;28;20104;-77
2022/12/14 02:53:45;;;;;;;0.60;0.60;;;-4.10;99.90;;;;;;5002641;28;20022;-75
2022/12/14 02:56:16;;;;;;;0.40;0.40;;;-4.10;99.90;;;;;;5007433;28;20026;-76
2022/12/14 02:58:49;;;;;;;0.40;0.40;;;-4.10;99.90;;;;;;4991027;28;20018;-76
2022/12/14 03:01:19;;;;;;;1.15;1.15;;;-4.10;99.90;;;;;;5005368;28;20018;-76
2022/12/14 03:03:45;;;;;;;0.50;0.50;;;-4.10;99.90;;;;;;5002270;28;20026;-76
2022/12/14 03:06:24;;;;;;;0.43;0.43;;;-4.10;99.90;;;;;;5005135;28;20161;-77
2022/12/14 03:08:52;;;;;;;0.55;0.55;;;-4.10;99.90;;;;;;5008409;28;20034;-76
2022/12/14 03:11:25;;;;;;;0.60;0.60;;;-4.10;99.90;;;;;;5020101;28;20047;-77
2022/12/14 03:13:57;;;;;;;0.50;0.50;;;-4.10;99.90;;;;;;5002419;28;20621;-76
2022/12/14 03:16:29;;;;;;;0.50;0.50;;;-4.10;99.90;;;;;;5001963;28;20507;-76
2022/12/14 03:19:07;;;;;;;0.70;0.70;;;-4.10;99.90;;;;;;5006290;28;20593;-77
2022/12/14 03:21:42;;;;;;;0.60;0.60;;;-4.10;99.90;;;;;;4990701;28;20038;-76
2022/12/14 03:24:13;;;;;;;2.30;1.77;;;-4.10;99.90;;;;;;4989438;28;20019;-76
2022/12/14 03:26:52;;;;;;;0.50;0.50;;;-4.10;99.90;;;;;;4989649;28;20034;-76
2022/12/14 03:29:27;;;;;;;0.50;0.50;;;-4.10;99.90;;;;;;5002919;28;20030;-76
2022/12/14 03:31:54;;;;;;;0.60;0.60;;;-4.00;99.90;;;;;;5003412;28;20232;-76
2022/12/14 03:34:28;;;;;;;0.50;0.50;;;-4.00;99.90;;;;;;5010170;28;20051;-76
2022/12/14 03:37:10;;;;;;;0.50;0.50;;;-4.10;99.90;;;;;;5004814;28;20034;-77
2022/12/14 03:39:37;;;;;;;0.60;0.60;;;-4.10;99.90;;;;;;5008048;28;20039;-76
2022/12/14 03:42:19;;;;;;;0.50;0.50;;;-4.10;99.90;;;;;;5006321;28;20036;-77
2022/12/14 03:45:03;;;;;;;0.47;0.47;;;-4.00;99.90;;;;;;5001959;28;20018;-76
2022/12/14 03:47:43;;;;;;;0.50;0.50;;;-4.00;99.90;;;;;;4998081;28;20033;-76
2022/12/14 03:50:18;;;;;;;1.25;1.25;;;-4.00;99.90;;;;;;5006231;28;20571;-76
2022/12/14 03:53:00;;;;;;;0.50;0.50;;;-4.00;99.90;;;;;;5001113;28;20030;-76
2022/12/14 03:55:32;;;;;;;0.60;0.60;;;-4.00;99.90;;;;;;5000965;28;20576;-76
2022/12/14 03:58:34;;;;;;;0.45;0.45;;;-4.00;99.90;;;;;;5005054;28;20026;-77
2022/12/14 04:01:15;;;;;;;0.45;0.45;;;-4.00;99.90;;;;;;5001949;28;20072;-76
2022/12/14 04:03:57;;;;;;;0.60;0.60;;;-4.00;99.90;;;;;;5000785;28;20022;-76
2022/12/14 04:06:47;;;;;;;0.47;0.47;;;-4.00;99.90;;;;;;5002597;28;20389;-76
2022/12/14 04:09:28;;;;;;;0.50;0.50;;;-4.00;99.90;;;;;;5002470;28;20105;-76
2022/12/14 04:21:07;;;;;;;2.20;1.40;;;-4.00;99.90;;;;;;5025768;28;20068;-75
2022/12/14 04:26:42;;;;;;;1.70;1.60;;;-4.00;99.90;;;;;;5009052;28;20500;-76
2022/12/14 04:32:27;;;;;;;1.00;1.00;;;-4.00;99.90;;;;;;5003768;28;20069;-72
2022/12/14 04:34:58;;;;;;;5.75;5.53;;;-3.90;99.90;;;;;;5007044;28;20029;-75
2022/12/14 04:37:26;;;;;;;0.45;0.45;;;-3.90;99.90;;;;;;5000383;28;20030;-75
2022/12/14 04:40:06;;;;;;;0.40;0.40;;;-3.90;99.90;;;;;;4983613;28;20033;-75
2022/12/14 04:42:39;;;;;;;0.40;0.40;;;-4.00;99.90;;;;;;5020983;28;20504;-75
2022/12/14 04:45:15;;;;;;;0.40;0.40;;;-4.00;99.90;;;;;;5002735;28;20072;-74
2022/12/14 04:47:50;;;;;;;0.40;0.40;;;-3.90;99.90;;;;;;5007383;28;20026;-74
2022/12/14 04:50:39;;;;;;;0.98;0.98;;;-4.00;99.90;;;;;;4982526;28;20393;-74
2022/12/14 04:53:11;;;;;;;0.40;0.40;;;-4.00;99.90;;;;;;4993628;28;20027;-76
2022/12/14 04:55:50;;;;;;;0.60;0.60;;;-4.00;99.90;;;;;;5010998;28;20032;-76
2022/12/14 04:58:24;;;;;;;0.47;0.47;;;-3.90;99.90;;;;;;5007033;28;20053;-75
2022/12/14 05:01:21;;;;;;;0.40;0.40;;;-3.90;99.90;;;;;;4989638;28;20057;-76
2022/12/14 05:03:59;;;;;;;0.80;0.80;;;-4.00;99.90;;;;;;5023178;28;20022;-75
2022/12/14 05:06:55;;;;;;;0.47;0.47;;;-3.90;99.90;;;;;;4983432;28;20026;-75
2022/12/14 05:09:39;;;;;;;0.60;0.60;;;-3.90;99.90;;;;;;5012459;28;20107;-76
2022/12/14 05:12:20;;;;;;;0.50;0.50;;;-3.90;99.90;;;;;;4991602;28;20026;-76
2022/12/14 05:14:57;;;;;;;0.65;0.65;;;-3.90;99.90;;;;;;5008376;28;20022;-76
2022/12/14 05:17:23;;;;;;;1.05;1.05;;;-3.80;99.90;;;;;;5005755;28;20041;-75
2022/12/14 05:19:50;;;;;;;0.50;0.50;;;-3.90;99.90;;;;;;4992938;28;20022;-75
2022/12/14 05:22:17;;;;;;;1.10;1.08;;;-3.90;99.90;;;;;;4993436;28;20056;-76
2022/12/14 05:24:42;;;;;;;1.83;1.75;;;-3.90;99.90;;;;;;5014428;28;20109;-76
2022/12/14 05:27:08;;;;;;;0.50;0.50;;;-3.80;99.90;;;;;;4984203;28;20117;-75
2022/12/14 05:29:34;;;;;;;0.60;0.60;;;-3.80;99.90;;;;;;5025579;28;20373;-75
2022/12/14 05:32:00;;;;;;;1.50;1.45;;;-3.90;99.90;;;;;;5003656;28;20046;-74
2022/12/14 05:34:26;;;;;;;5.80;3.72;;;-3.90;99.90;;;;;;5006041;28;20506;-74
2022/12/14 05:36:51;;;;;;;0.90;0.90;;;-3.90;99.90;;;;;;4991722;28;20063;-76
2022/12/14 05:39:17;;;;;;;1.95;1.85;;;-3.80;99.90;;;;;;5018780;28;20022;-75
2022/12/14 05:41:43;;;;;;;0.50;0.50;;;-3.80;99.90;;;;;;5015233;28;20041;-76
2022/12/14 05:44:09;;;;;;;1.70;1.65;;;-3.80;99.90;;;;;;4976897;28;20023;-74
2022/12/14 05:46:34;;;;;;;0.60;0.60;;;-3.80;99.90;;;;;;5004131;28;20026;-76
2022/12/14 05:49:01;;;;;;;6.63;1.35;;;-3.80;99.90;;;;;;5005795;28;20029;-76
2022/12/14 05:51:26;;;;;;;1.13;1.02;;;-3.80;99.90;;;;;;5008202;28;20030;-76
2022/12/14 05:53:52;;;;;;;0.50;0.50;;;-3.70;99.90;;;;;;4984880;28;20109;-76
2022/12/14 05:56:17;;;;;;;1.23;1.23;;;-3.70;99.90;;;;;;4992764;28;20171;-76
2022/12/14 05:58:43;;;;;;;1.73;1.67;;;-3.70;99.90;;;;;;5007376;28;20053;-76
2022/12/14 06:01:10;;;;;;;3.45;2.95;;;-3.70;99.90;;;;;;5000823;28;20507;-76
2022/12/14 06:03:36;;;;;;;0.40;0.40;;;-3.70;99.90;;;;;;5025432;28;20041;-75
2022/12/14 06:06:04;;;;;;;0.50;0.50;;;-3.70;99.90;;;;;;5004597;28;20023;-76
2022/12/14 06:08:31;;;;;;;0.50;0.50;;;-3.70;99.90;;;;;;5007856;28;20037;-76
2022/12/14 06:11:09;;;;;;;0.50;0.50;;;-3.60;99.90;;;;;;5004280;28;20068;-76
2022/12/14 06:13:36;;;;;;;4.65;4.43;;;-3.60;99.90;;;;;;5014803;28;20032;-77
2022/12/14 06:16:07;;;;;;;0.47;0.47;;;-3.60;99.90;;;;;;4994343;28;20480;-78
2022/12/14 06:18:32;;;;;;;0.50;0.50;;;-3.60;99.90;;;;;;4993993;28;20025;-77
2022/12/14 06:20:58;;;;;;;0.60;0.60;;;-3.60;99.90;;;;;;4974662;28;20034;-76
2022/12/14 06:23:23;;;;;;;3.92;1.95;;;-3.50;99.90;;;;;;5010386;28;20022;-75
2022/12/14 06:25:55;;;;;;;0.50;0.50;;;-3.60;99.90;;;;;;4982942;28;20037;-73
2022/12/14 06:28:22;;;;;;;0.47;0.47;;;-3.60;99.90;;;;;;5011006;28;20480;-76
2022/12/14 06:30:48;;;;;;;0.60;0.60;;;-3.60;99.90;;;;;;5011628;28;20030;-75
2022/12/14 06:33:14;;;;;;;0.40;0.40;;;-3.60;99.90;;;;;;4992967;28;20026;-76
2022/12/14 06:35:43;;;;;;;0.50;0.50;;;-3.60;99.90;;;;;;4986720;28;20021;-76
2022/12/14 06:38:10;;;;;;;0.55;0.55;;;-3.60;99.90;;;;;;5011532;28;20042;-76
2022/12/14 06:40:35;;;;;;;0.60;0.60;;;-3.60;99.90;;;;;;4994031;28;20026;-76
2022/12/14 06:43:01;;;;;;;0.50;0.50;;;-3.60;99.90;;;;;;5011682;28;20482;-76
2022/12/14 06:45:28;;;;;;;0.45;0.45;;;-3.50;99.90;;;;;;5011676;28;20423;-77
2022/12/14 06:47:53;;;;;;;0.60;0.60;;;-3.50;99.90;;;;;;5011580;28;20030;-76
2022/12/14 06:50:19;;;;;;;0.50;0.50;;;-3.50;99.90;;;;;;4994074;28;20022;-76
2022/12/14 06:52:48;;;;;;;0.40;0.40;;;-3.50;99.90;;;;;;4974723;28;20174;-76
2022/12/14 06:55:13;;;;;;;0.40;0.40;;;-3.50;99.90;;;;;;4991726;28;20041;-78
2022/12/14 06:57:39;;;;;;;3.55;3.35;;;-3.50;99.90;;;;;;4988626;28;20030;-77
2022/12/14 07:00:05;;;;;;;0.50;0.50;;;-3.50;99.90;;;;;;5004889;28;20037;-73
2022/12/14 07:02:31;;;;;;;0.60;0.60;;;-3.50;99.90;;;;;;5000417;28;20061;-75
2022/12/14 07:04:56;;;;;;;0.52;0.52;;;-3.50;99.90;;;;;;5029102;28;20057;-76
2022/12/14 07:07:22;;;;;;;0.40;0.40;;;-3.50;99.90;;;;;;5009181;28;20057;-76
2022/12/14 07:09:47;;;;;;;0.80;0.80;;;-3.50;99.90;;;;;;4995560;28;20082;-77
2022/12/14 07:12:14;;;;;;;0.40;0.40;;;-3.40;99.90;;;;;;5001410;28;20052;-77
2022/12/14 07:14:39;;;;;;;0.50;0.50;;;-3.40;99.90;;;;;;4984723;28;20022;-77
2022/12/14 07:17:05;;;;;;;0.47;0.47;;;-3.40;99.90;;;;;;4990492;28;20029;-76
2022/12/14 07:19:30;;;;;;;0.40;0.40;;;-3.50;99.90;;;;;;5007891;28;20033;-76
2022/12/14 07:21:56;;;;;;;0.68;0.68;;;-3.40;99.90;;;;;;4977941;28;20466;-77
2022/12/14 07:24:21;;;;;;;0.50;0.50;;;-3.40;99.90;;;;;;4977862;28;20041;-76
2022/12/14 07:26:47;;;;;;;0.50;0.50;;;-3.40;99.90;;;;;;5014218;28;20034;-77
2022/12/14 07:29:14;;;;;;;0.47;0.47;;;-3.40;99.90;;;;;;4984632;28;20034;-76
2022/12/14 07:31:39;;;;;;;0.52;0.52;;;-3.40;99.90;;;;;;5014265;28;20112;-76
2022/12/14 07:34:05;;;;;;;0.50;0.50;;;-3.40;99.90;;;;;;4984535;28;20126;-75
2022/12/14 07:36:31;;;;;;;0.52;0.52;;;-3.40;99.90;;;;;;5007934;28;20026;-75
2022/12/14 07:38:57;;;;;;;0.50;0.50;;;-3.30;99.90;;;;;;4990157;28;20043;-76
2022/12/14 07:41:29;;;;;;;0.98;0.98;;;-3.30;99.90;;;;;;4984146;28;20026;-77
2022/12/14 07:43:56;;;;;;;0.45;0.45;;;-3.30;99.90;;;;;;5000792;28;20353;-77
2022/12/14 07:46:24;;;;;;;0.45;0.45;;;-3.30;99.90;;;;;;4996873;28;20217;-76
2022/12/14 07:48:53;;;;;;;0.50;0.50;;;-3.20;99.90;;;;;;5014166;28;20480;-77
2022/12/14 07:51:20;;;;;;;0.43;0.43;;;-3.20;99.90;;;;;;5014271;28;20030;-76
2022/12/14 07:53:47;;;;;;;0.50;0.50;;;-3.20;99.90;;;;;;4999571;28;20030;-76
2022/12/14 07:56:15;;;;;;;2.55;1.33;;;-3.20;99.90;;;;;;5002492;28;20535;-76
2022/12/14 07:58:41;;;;;;;0.50;0.50;;;-3.20;99.90;;;;;;4981167;28;20022;-76
2022/12/14 08:01:18;;;;;;;0.60;0.60;;;-3.20;99.90;;;;;;4985311;28;20032;-76
2022/12/14 08:03:52;;;;;;;0.70;0.70;;;-3.10;99.90;;;;;;4983353;28;20030;-76
2022/12/14 08:06:20;;;;;;;0.47;0.47;;;-3.10;99.90;;;;;;5002783;28;20034;-75
2022/12/14 08:08:46;;;;;;;1.95;1.38;;;-3.10;99.90;;;;;;5028235;28;20033;-76
2022/12/14 08:11:12;;;;;;;1.05;1.05;;;-3.10;99.90;;;;;;4985278;28;20022;-76
2022/12/14 08:13:38;;;;;;;0.77;0.77;;;-3.00;99.90;;;;;;5006505;28;20053;-76
2022/12/14 08:16:10;;;;;;;1.95;1.30;;;-3.00;99.90;;;;;;4987857;28;20033;-75
2022/12/14 08:18:36;;;;;;;2.90;2.22;;;-3.00;99.90;;;;;;4982638;28;20022;-76
2022/12/14 08:21:03;;;;;;;0.52;0.52;;;-3.00;99.90;;;;;;5001295;28;20057;-76
2022/12/14 08:23:29;;;;;;;1.88;1.20;;;-3.00;99.90;;;;;;4989841;28;20142;-76
2022/12/14 08:25:56;;;;;;;0.47;0.47;;;-3.00;99.90;;;;;;4988966;28;20014;-76
2022/12/14 08:28:23;;;;;;;0.70;0.70;;;-2.90;99.90;;;;;;5007728;28;20161;-76
2022/12/14 08:30:48;;;;;;;0.50;0.50;;;-2.90;99.90;;;;;;5004259;28;20030;-76
2022/12/14 08:33:14;;;;;;;0.50;0.50;;;-2.90;99.90;;;;;;4984258;28;20033;-77
2022/12/14 08:35:40;;;;;;;1.15;1.08;;;-2.90;99.90;;;;;;4983360;28;20023;-77
2022/12/14 08:38:05;;;;;;;0.40;0.40;;;-2.80;99.90;;;;;;5006156;28;20026;-77
2022/12/14 08:40:34;;;;;;;0.40;0.40;;;-2.80;99.90;;;;;;5005969;28;20026;-77
2022/12/14 08:42:59;;;;;;;2.40;2.33;;;-2.70;99.90;;;;;;4999987;28;20706;-77
2022/12/14 08:45:25;;;;;;;0.40;0.40;;;-2.80;99.90;;;;;;4995565;28;20018;-76
2022/12/14 08:47:51;;;;;;;0.40;0.40;;;-2.70;99.90;;;;;;4999214;28;20060;-77
2022/12/14 08:50:16;;;;;;;1.75;1.30;;;-2.60;99.90;;;;;;5025150;28;20033;-77
2022/12/14 08:52:42;;;;;;;3.30;1.95;;;-2.50;99.90;;;;;;5001839;28;20036;-75
2022/12/14 08:55:07;;;;;;;0.40;0.40;;;-2.50;99.90;;;;;;5015107;28;20130;-76
2022/12/14 08:57:33;;;;;;;1.08;1.08;;;-2.50;99.90;;;;;;4989905;28;20026;-76
2022/12/14 08:59:58;;;;;;;0.32;0.32;;;-2.40;99.90;;;;;;4988093;28;20032;-77
2022/12/14 09:02:24;;;;;;;1.58;1.58;;;-2.30;99.90;;;;;;4982001;28;20092;-77
2022/12/14 09:04:50;;;;;;;0.88;0.88;;;-2.40;99.90;;;;;;5012835;28;20057;-77
2022/12/14 09:07:16;;;;;;;0.50;0.50;;;-2.40;99.90;;;;;;5025405;28;20034;-75
2022/12/14 09:09:41;;;;;;;0.60;0.60;;;-2.50;99.90;;;;;;5000801;28;20026;-76
2022/12/14 09:12:07;;;;;;;2.92;2.58;;;-2.40;99.90;;;;;;4988615;28;20033;-76
2022/12/14 09:14:34;;;;;;;0.73;0.73;;;-2.40;99.90;;;;;;5005010;28;20030;-77
2022/12/14 09:17:00;;;;;;;1.20;1.20;;;-2.40;99.90;;;;;;4986758;28;20121;-76
2022/12/14 09:19:26;;;;;;;0.50;0.50;;;-2.40;99.90;;;;;;5002503;28;20026;-76
2022/12/14 09:21:51;;;;;;;0.93;0.90;;;-2.40;99.90;;;;;;4999103;28;20117;-76
2022/12/14 09:24:19;;;;;;;0.40;0.40;;;-2.30;99.90;;;;;;4992765;28;20138;-77
2022/12/14 09:26:44;;;;;;;0.50;0.50;;;-2.30;99.90;;;;;;5006049;28;20031;-76
2022/12/14 09:29:13;;;;;;;0.60;0.60;;;-2.30;99.90;;;;;;4986925;28;20022;-75
2022/12/14 09:31:39;;;;;;;0.60;0.60;;;-2.20;99.90;;;;;;4999212;28;20491;-76
2022/12/14 09:34:05;;;;;;;1.08;0.70;;;-2.20;99.90;;;;;;4999863;28;20117;-77
2022/12/14 09:36:32;;;;;;;0.50;0.50;;;-2.20;99.90;;;;;;4988298;28;20065;-75
2022/12/14 09:38:58;;;;;;;0.50;0.50;;;-2.20;99.90;;;;;;4987115;28;20113;-76
2022/12/14 09:41:34;;;;;;;0.50;0.50;;;-2.30;99.90;;;;;;4975933;28;20026;-75
2022/12/14 09:44:07;;;;;;;1.05;1.05;;;-2.40;99.90;;;;;;5005738;28;20678;-76
2022/12/14 09:47:10;;;;;;;0.45;0.45;;;-2.30;99.90;;;;;;5000872;28;20060;-76
2022/12/14 09:49:46;;;;;;;0.40;0.40;;;-2.30;99.90;;;;;;4981523;28;20435;-76
2022/12/14 09:52:18;;;;;;;0.50;0.50;;;-2.30;99.90;;;;;;4997098;28;20464;-76
2022/12/14 09:54:46;;;;;;;0.50;0.50;;;-2.30;99.90;;;;;;5004511;28;20152;-76
2022/12/14 09:57:20;;;;;;;0.40;0.40;;;-2.10;99.90;;;;;;5027323;28;20102;-76
2022/12/14 09:59:46;;;;;;;0.40;0.40;;;-2.10;99.90;;;;;;5021493;28;20093;-76
2022/12/14 10:02:27;;;;;;;0.40;0.40;;;-2.10;99.90;;;;;;5011011;28;20153;-76
2022/12/14 10:05:04;;;;;;;0.50;0.50;;;-2.10;99.90;;;;;;5012293;28;20049;-76
2022/12/14 10:07:47;;;;;;;1.30;1.30;;;-2.10;99.90;;;;;;4981431;28;20479;-76
2022/12/14 10:10:25;;;;;;;0.40;0.40;;;-2.00;99.90;;;;;;5009329;28;20448;-76
2022/12/14 10:13:14;;;;;;;0.60;0.60;;;-2.00;99.90;;;;;;5013735;28;20026;-76
2022/12/14 10:16:03;;;;;;;0.50;0.50;;;-1.90;99.90;;;;;;4999847;28;20049;-75
2022/12/14 10:18:42;;;;;;;0.50;0.50;;;-2.00;99.90;;;;;;4996229;28;20047;-76
2022/12/14 10:21:14;;;;;;;0.40;0.40;;;-1.90;99.90;;;;;;4989672;28;20029;-76
2022/12/14 10:23:47;;;;;;;0.45;0.45;;;-1.90;99.90;;;;;;5073335;23;20141;-76
2022/12/14 10:26:18;;;;;;;0.43;0.43;;;-1.90;99.90;;;;;;5045555;28;20021;-75
2022/12/14 10:28:52;;;;;;;1.33;1.30;;;-1.90;99.90;;;;;;5050796;28;20072;-76
2022/12/14 10:31:56;;;;;;;2.28;2.17;;;-1.90;99.90;;;;;;5053486;28;20025;-75
2022/12/14 10:34:26;;;;;;;0.60;0.60;;;-1.90;99.90;;;;;;5033233;28;20095;-76
2022/12/14 10:37:19;;;;;;;1.25;1.25;;;-1.90;99.90;;;;;;5031929;28;20398;-76
2022/12/14 10:40:03;;;;;;;0.40;0.40;;;-1.80;99.90;;;;;;5034161;28;20028;-76
2022/12/14 10:42:56;;;;;;;0.40;0.40;;;-1.90;99.90;;;;;;5041650;28;20104;-75
2022/12/14 10:45:40;;;;;;;0.80;0.80;;;-1.90;99.90;;;;;;5033913;28;20033;-76
2022/12/14 10:48:38;;;;;;;0.40;0.40;;;-1.90;99.90;;;;;;5023037;28;20104;-75
2022/12/14 10:51:16;;;;;;;0.60;0.60;;;-1.90;99.90;;;;;;5037543;28;20383;-75
2022/12/14 10:53:49;;;;;;;0.45;0.45;;;-1.90;99.90;;;;;;5027446;28;20124;-76
2022/12/14 10:56:23;;;;;;;0.95;0.75;;;-1.90;99.90;;;;;;5034961;28;20479;-76
2022/12/14 10:59:22;;;;;;;0.45;0.45;;;-2.00;99.90;;;;;;5030589;28;20032;-76
2022/12/14 11:02:16;;;;;;;0.50;0.50;;;-2.00;99.90;;;;;;5037790;28;20026;-76
2022/12/14 11:04:56;;;;;;;0.43;0.43;;;-1.90;99.90;;;;;;5033834;28;20034;-75
2022/12/14 11:07:32;;;;;;;0.50;0.50;;;-1.90;99.90;;;;;;5034087;28;20107;-76
2022/12/14 11:10:17;;;;;;;;;;;-1.90;99.90;;;;;;5034976;28;20033;-76
2022/12/14 11:13:13;;;;;;;0.60;0.60;;;-1.80;99.90;;;;;;5034317;28;19909;-76
2022/12/14 11:15:44;;;;;;;0.50;0.50;;;-1.90;99.90;;;;;;5035027;28;20050;-76
2022/12/14 11:18:16;;;;;;;0.55;0.55;;;-1.80;99.90;;;;;;5032418;28;20025;-77
2022/12/14 11:20:55;;;;;;;0.85;0.85;;;-1.70;99.90;;;;;;5034655;28;20573;-75
2022/12/14 11:23:28;;;;;;;0.50;0.50;;;-1.70;99.90;;;;;;5033306;28;20057;-76
2022/12/14 11:25:57;;;;;;;0.82;0.82;;;-1.70;99.90;;;;;;5032385;28;20014;-76
2022/12/14 11:28:34;;;;;;;0.43;0.43;;;-1.80;99.90;;;;;;5034738;28;20471;-75
2022/12/14 11:31:04;;;;;;;1.13;1.13;;;-1.80;99.90;;;;;;5034994;28;20075;-75
2022/12/14 11:33:37;;;;;;;0.47;0.47;;;-1.90;99.90;;;;;;5036522;28;20055;-75
2022/12/14 11:36:03;;;;;;;1.17;1.17;;;-1.90;99.90;;;;;;5035365;28;20379;-75
2022/12/14 11:38:30;;;;;;;1.95;1.17;;;-2.00;99.90;;;;;;5024365;28;20022;-75
2022/12/14 11:40:56;;;;;;;0.60;0.60;;;-2.00;99.90;;;;;;5033756;28;20095;-75
2022/12/14 11:43:28;;;;;;;0.50;0.50;;;-2.00;99.90;;;;;;5033595;28;20386;-75
2022/12/14 11:45:56;;;;;;;0.80;0.80;;;-2.00;99.90;;;;;;5032224;28;20045;-76
2022/12/14 11:48:27;;;;;;;0.50;0.50;;;-2.10;99.90;;;;;;5030194;28;20550;-75
2022/12/14 11:51:06;;;;;;;0.50;0.50;;;-2.10;99.90;;;;;;5031699;28;20124;-76
2022/12/14 11:53:32;;;;;;;0.65;0.65;;;-2.00;99.90;;;;;;5032673;28;20029;-75
2022/12/14 11:56:00;;;;;;;1.10;0.90;;;-2.00;99.90;;;;;;5032652;28;20028;-76
2022/12/14 11:58:36;;;;;;;0.50;0.50;;;-2.00;99.90;;;;;;5033295;28;20030;-75
2022/12/14 12:01:05;;;;;;;0.50;0.50;;;-2.10;99.90;;;;;;5032118;28;20109;-75
2022/12/14 12:03:35;;;;;;;0.80;0.80;;;-2.10;99.90;;;;;;5038810;28;20035;-75
2022/12/14 12:06:06;;;;;;;0.40;0.40;;;-2.10;99.90;;;;;;5033940;28;20035;-76
2022/12/14 12:08:35;;;;;;;0.50;0.50;;;-2.20;99.90;;;;;;5031868;28;20083;-75
2022/12/14 12:11:23;;;;;;;0.47;0.47;;;-2.20;99.90;;;;;;5035754;28;20022;-77
2022/12/14 12:14:00;;;;;;;1.00;1.00;;;-2.10;99.90;;;;;;5033986;28;20026;-75
2022/12/14 12:16:28;;;;;;;0.40;0.40;;;-2.10;99.90;;;;;;5032141;28;20079;-76
2022/12/14 12:18:59;;;;;;;0.43;0.43;;;-2.00;99.90;;;;;;5032975;28;20053;-76
2022/12/14 12:21:33;;;;;;;0.57;0.57;;;-2.00;99.90;;;;;;5037400;28;20029;-76
2022/12/14 12:24:29;;;;;;;2.67;2.58;;;-2.00;99.90;;;;;;5033714;28;20116;-75
2022/12/14 12:27:10;;;;;;;0.40;0.40;;;-2.10;99.90;;;;;;5032916;28;20038;-75
2022/12/14 12:29:46;;;;;;;0.47;0.47;;;-2.00;99.90;;;;;;5033174;28;20202;-75
2022/12/14 12:32:20;;;;;;;0.45;0.45;;;-2.20;99.90;;;;;;5035082;28;20021;-76
2022/12/14 12:34:58;;;;;;;0.57;0.57;;;-2.30;99.90;;;;;;5033175;28;20025;-76
2022/12/14 12:37:38;;;;;;;0.70;0.70;;;-2.10;99.90;;;;;;5040504;28;20075;-76
2022/12/14 12:40:20;;;;;;;0.70;0.70;;;-2.20;99.90;;;;;;5036423;28;20110;-75
2022/12/14 12:43:37;;;;;;;0.50;0.50;;;-2.10;99.90;;;;;;5035808;28;20057;-76
2022/12/14 12:46:14;;;;;;;0.88;0.88;;;-2.00;99.90;;;;;;4991227;28;20031;-76
2022/12/14 12:48:54;;;;;;;0.50;0.50;;;-2.20;99.90;;;;;;5033002;28;20032;-76
2022/12/14 12:51:24;;;;;;;0.70;0.70;;;-2.10;99.90;;;;;;5024676;28;20079;-76
2022/12/14 12:54:01;;;;;;;0.50;0.50;;;-2.00;99.90;;;;;;5033995;28;20029;-75
2022/12/14 12:56:34;;;;;;;1.95;1.50;;;-2.10;99.90;;;;;;5042555;28;20471;-75
2022/12/14 12:59:02;;;;;;;0.50;0.50;;;-2.20;99.90;;;;;;5043645;28;20022;-76
2022/12/14 13:01:41;;;;;;;0.88;0.88;;;-2.10;99.90;;;;;;5038478;28;20383;-76
2022/12/14 13:04:14;;;;;;;0.68;0.68;;;-2.10;99.90;;;;;;5031273;28;20022;-75
2022/12/14 13:06:50;;;;;;;0.55;0.55;;;-2.00;99.90;;;;;;5032285;28;20395;-76
2022/12/14 13:09:41;;;;;;;0.50;0.50;;;-2.00;99.90;;;;;;5033662;28;20025;-77
2022/12/14 13:12:16;;;;;;;0.82;0.80;;;-2.10;99.90;;;;;;5027437;28;20030;-76
2022/12/14 13:14:45;;;;;;;1.20;1.15;;;-2.20;99.90;;;;;;5032732;28;20033;-77
2022/12/14 13:17:46;;;;;;;1.77;1.67;;;-2.30;99.90;;;;;;5034330;28;20475;-76
2022/12/14 13:20:26;;;;;;;0.50;0.50;;;-2.50;99.90;;;;;;5006480;28;20029;-77
2022/12/14 13:22:53;;;;;;;0.60;0.60;;;-2.40;99.90;;;;;;5037037;28;20041;-76
2022/12/14 13:25:32;;;;;;;0.60;0.60;;;-2.40;99.90;;;;;;5040509;28;20022;-76
2022/12/14 13:29:01;;;;;;;8.52;7.88;;;-2.40;99.90;;;;;;5032299;28;20067;-76